Time;durP1;ratioP1;P1;durP2;ratioP2;P2;SDS_P1;SDS_P2;PMS_P1;PMS_P2;Temp;Humidity;BMP_temperature;BMP_pressure;BME280_temperature;BME280_humidity;BME280_pressure;Samples;Min_cycle;Max_cycle;Signal;HPM_P1;HPM_P2
2022/06/11 00:01:45;;;;;;;7.28;6.20;;;20.30;99.90;;;;;;5067255;28;20780;-57
2022/06/11 00:04:15;;;;;;;8.20;4.72;;;20.30;99.90;;;;;;5083820;28;20434;-58
2022/06/11 00:06:45;;;;;;;6.53;4.35;;;20.30;99.90;;;;;;5086061;28;20626;-58
2022/06/11 00:09:11;;;;;;;6.78;4.72;;;20.30;99.90;;;;;;5072148;28;20383;-58
2022/06/11 00:11:37;;;;;;;8.02;4.65;;;20.20;99.90;;;;;;5072764;28;20395;-58
2022/06/11 00:14:04;;;;;;;6.68;4.55;;;20.20;99.90;;;;;;5071696;28;20372;-58
2022/06/11 00:16:30;;;;;;;6.20;4.53;;;20.20;99.90;;;;;;5089145;28;20472;-58
2022/06/11 00:18:57;;;;;;;7.97;4.60;;;20.20;99.90;;;;;;5072846;28;20403;-58
2022/06/11 00:21:26;;;;;;;6.00;4.50;;;20.20;99.90;;;;;;5071041;28;20691;-56
2022/06/11 00:23:51;;;;;;;6.00;4.45;;;20.20;99.90;;;;;;5085334;28;20487;-57
2022/06/11 00:26:18;;;;;;;6.22;4.90;;;20.20;99.90;;;;;;5084299;28;20482;-58
2022/06/11 00:28:44;;;;;;;6.50;4.90;;;20.20;99.90;;;;;;5068851;28;20774;-58
2022/06/11 00:31:10;;;;;;;5.60;4.77;;;20.20;99.90;;;;;;5083654;28;20794;-57
2022/06/11 00:33:37;;;;;;;7.45;4.78;;;20.10;99.90;;;;;;5084081;28;20996;-58
2022/06/11 00:36:05;;;;;;;7.15;4.82;;;20.10;99.90;;;;;;5068709;28;20391;-58
2022/06/11 00:38:31;;;;;;;5.82;5.10;;;20.10;99.90;;;;;;5085892;28;20384;-58
2022/06/11 00:40:56;;;;;;;8.75;4.95;;;20.10;99.90;;;;;;5069674;28;20852;-58
2022/06/11 00:43:25;;;;;;;6.15;4.45;;;20.10;99.90;;;;;;5071450;28;20380;-58
2022/06/11 00:46:32;;;;;;;7.40;4.80;;;20.10;99.90;;;;;;5069057;28;20388;-58
2022/06/11 00:48:59;;;;;;;5.70;4.67;;;20.10;99.90;;;;;;5069863;28;20399;-56
2022/06/11 00:51:24;;;;;;;7.88;5.00;;;20.00;99.90;;;;;;5070799;28;20388;-58
2022/06/11 00:54:00;;;;;;;6.50;5.40;;;20.10;99.90;;;;;;5085503;28;20388;-58
2022/06/11 00:56:32;;;;;;;6.10;5.13;;;20.00;99.90;;;;;;5086712;28;20475;-59
2022/06/11 00:59:00;;;;;;;6.67;5.27;;;20.00;99.90;;;;;;5086622;28;20506;-58
2022/06/11 01:01:27;;;;;;;6.80;5.00;;;19.90;99.90;;;;;;5086335;28;20791;-56
2022/06/11 01:03:55;;;;;;;7.00;5.18;;;19.90;99.90;;;;;;5067024;28;20426;-58
2022/06/11 01:06:34;;;;;;;8.57;5.30;;;19.90;99.90;;;;;;5051490;28;20555;-58
2022/06/11 01:09:04;;;;;;;7.40;5.00;;;19.90;99.90;;;;;;5052081;28;20389;-58
2022/06/11 01:11:58;;;;;;;7.53;5.10;;;19.90;99.90;;;;;;5052614;28;20377;-57
2022/06/11 01:14:45;;;;;;;6.82;5.47;;;19.90;99.90;;;;;;5035513;28;20435;-58
2022/06/11 01:17:29;;;;;;;8.50;5.43;;;19.80;99.90;;;;;;5052222;28;20454;-57
2022/06/11 01:20:26;;;;;;;7.63;5.60;;;19.70;99.90;;;;;;5034423;28;20944;-58
2022/06/11 01:23:09;;;;;;;7.60;5.60;;;19.50;99.90;;;;;;5051785;28;20405;-58
2022/06/11 01:25:58;;;;;;;8.30;5.60;;;19.30;99.90;;;;;;5051729;28;20412;-57
2022/06/11 01:28:26;;;;;;;9.02;5.32;;;19.20;99.90;;;;;;5052397;28;20407;-56
2022/06/11 01:31:06;;;;;;;7.85;5.25;;;19.20;99.90;;;;;;5035261;28;20393;-58
2022/06/11 01:33:56;;;;;;;8.10;5.28;;;19.10;99.90;;;;;;5052698;28;20496;-59
2022/06/11 01:36:27;;;;;;;8.10;5.03;;;19.00;99.90;;;;;;5034715;28;20412;-56
2022/06/11 01:39:03;;;;;;;9.05;4.85;;;19.00;99.90;;;;;;5053070;28;20385;-61
2022/06/11 01:41:49;;;;;;;9.23;4.65;;;19.10;99.90;;;;;;5051305;28;20435;-58
2022/06/11 01:44:24;;;;;;;7.60;4.87;;;19.10;99.90;;;;;;5050210;28;21039;-58
2022/06/11 01:46:53;;;;;;;8.77;4.50;;;19.10;99.90;;;;;;5048648;28;20488;-57
2022/06/11 01:49:21;;;;;;;7.83;4.90;;;19.20;99.90;;;;;;5050440;28;20451;-57
2022/06/11 01:52:06;;;;;;;8.07;5.13;;;19.20;99.90;;;;;;5034116;28;20420;-58
2022/06/11 01:54:53;;;;;;;6.28;4.20;;;19.10;99.90;;;;;;5051642;28;20381;-59
2022/06/11 01:57:27;;;;;;;5.03;3.67;;;19.20;99.90;;;;;;5052345;28;20983;-59
2022/06/11 02:00:07;;;;;;;5.13;3.65;;;19.30;99.90;;;;;;5034353;28;20386;-57
2022/06/11 02:03:18;;;;;;;4.50;3.80;;;19.40;99.90;;;;;;5067156;28;20446;-58
2022/06/11 02:06:21;;;;;;;6.43;3.75;;;19.50;99.90;;;;;;5067165;28;20428;-57
2022/06/11 02:08:47;;;;;;;5.35;3.45;;;19.50;99.90;;;;;;5071444;28;20387;-57
2022/06/11 02:11:35;;;;;;;4.82;3.70;;;19.50;99.90;;;;;;5072027;28;20467;-58
2022/06/11 02:14:18;;;;;;;5.47;3.47;;;19.60;99.90;;;;;;5087054;28;20384;-58
2022/06/11 02:16:53;;;;;;;4.78;3.50;;;19.60;99.90;;;;;;5087517;28;20445;-58
2022/06/11 02:19:27;;;;;;;4.75;3.60;;;19.60;99.90;;;;;;5073509;28;20802;-56
2022/06/11 02:22:10;;;;;;;5.90;3.63;;;19.60;99.90;;;;;;5087605;28;20391;-56
2022/06/11 02:24:41;;;;;;;6.40;3.90;;;19.60;99.90;;;;;;5071747;28;20798;-58
2022/06/11 02:27:14;;;;;;;6.75;4.00;;;19.60;99.90;;;;;;5087640;28;20464;-58
2022/06/11 02:29:40;;;;;;;5.93;3.78;;;19.50;99.90;;;;;;5088575;28;20409;-58
2022/06/11 02:32:14;;;;;;;5.85;3.58;;;19.50;99.90;;;;;;5087869;28;20894;-58
2022/06/11 02:34:47;;;;;;;5.15;3.50;;;19.50;99.90;;;;;;5088243;28;20464;-56
2022/06/11 02:37:32;;;;;;;5.07;3.88;;;19.60;99.90;;;;;;5086825;28;20384;-58
2022/06/11 02:40:04;;;;;;;5.97;3.80;;;19.50;99.90;;;;;;5070833;28;20508;-58
2022/06/11 02:42:30;;;;;;;6.95;3.95;;;19.50;99.90;;;;;;5086023;28;20379;-58
2022/06/11 02:44:56;;;;;;;4.90;3.57;;;19.50;99.90;;;;;;5087203;28;20392;-58
2022/06/11 02:47:22;;;;;;;6.27;3.57;;;19.50;99.90;;;;;;5071034;28;20426;-59
2022/06/11 02:49:49;;;;;;;5.37;3.70;;;19.50;99.90;;;;;;5071330;28;20766;-57
2022/06/11 02:52:21;;;;;;;5.82;4.07;;;19.40;99.90;;;;;;5088670;28;20449;-56
2022/06/11 02:54:49;;;;;;;7.68;4.15;;;19.40;99.90;;;;;;5088398;28;20411;-58
2022/06/11 02:57:20;;;;;;;4.93;3.80;;;19.30;99.90;;;;;;5087910;28;20478;-56
2022/06/11 02:59:47;;;;;;;9.00;4.50;;;19.30;99.90;;;;;;5070053;28;20470;-55
2022/06/11 03:02:13;;;;;;;7.47;4.13;;;19.20;99.90;;;;;;5083095;28;20411;-59
2022/06/11 03:04:40;;;;;;;7.17;4.40;;;19.30;99.90;;;;;;5084244;28;20388;-56
2022/06/11 03:07:08;;;;;;;7.47;4.43;;;19.20;99.90;;;;;;5084667;28;20408;-57
2022/06/11 03:09:35;;;;;;;6.65;4.65;;;19.10;99.90;;;;;;5069296;28;20388;-57
2022/06/11 03:12:02;;;;;;;10.13;4.65;;;19.10;99.90;;;;;;5087944;28;20797;-56
2022/06/11 03:14:28;;;;;;;7.50;4.05;;;19.00;99.90;;;;;;5089516;28;20383;-59
2022/06/11 03:16:53;;;;;;;10.65;5.28;;;19.00;99.90;;;;;;5089997;28;20718;-58
2022/06/11 03:19:21;;;;;;;8.60;4.27;;;18.90;99.90;;;;;;5088459;28;20415;-58
2022/06/11 03:21:53;;;;;;;6.47;4.35;;;18.90;99.90;;;;;;5090010;28;20467;-58
2022/06/11 03:24:20;;;;;;;9.13;4.18;;;18.90;99.90;;;;;;5089634;28;20462;-57
2022/06/11 03:26:47;;;;;;;5.15;4.00;;;19.00;99.90;;;;;;5072915;28;20402;-57
2022/06/11 03:29:13;;;;;;;6.18;4.05;;;19.10;99.90;;;;;;5086309;28;20392;-58
2022/06/11 03:31:38;;;;;;;5.15;4.13;;;19.10;99.90;;;;;;5087521;28;20748;-58
2022/06/11 03:34:04;;;;;;;6.97;4.17;;;19.20;99.90;;;;;;5088371;28;20394;-58
2022/06/11 03:36:31;;;;;;;7.00;3.90;;;19.30;99.90;;;;;;5072630;28;20403;-59
2022/06/11 03:38:57;;;;;;;6.30;3.60;;;19.30;99.90;;;;;;5089251;28;20387;-59
2022/06/11 03:41:23;;;;;;;5.00;3.65;;;19.30;99.90;;;;;;5074438;28;20383;-58
2022/06/11 03:43:51;;;;;;;4.30;3.10;;;19.40;99.90;;;;;;5089898;28;20479;-59
2022/06/11 03:46:17;;;;;;;4.70;3.58;;;19.40;99.90;;;;;;5089299;28;20442;-58
2022/06/11 03:48:43;;;;;;;8.10;4.50;;;19.30;99.90;;;;;;5072260;28;20461;-58
2022/06/11 03:51:10;;;;;;;7.20;4.10;;;19.30;99.90;;;;;;5088954;28;20375;-58
2022/06/11 03:53:37;;;;;;;6.65;3.80;;;19.30;99.90;;;;;;5087530;28;20491;-57
2022/06/11 03:56:04;;;;;;;5.03;3.58;;;19.30;99.90;;;;;;5072078;28;20396;-58
2022/06/11 03:58:30;;;;;;;5.60;3.70;;;19.30;99.90;;;;;;5088962;28;20763;-58
2022/06/11 04:01:15;;;;;;;5.40;3.63;;;19.40;99.90;;;;;;5089433;28;20413;-59
2022/06/11 04:03:46;;;;;;;7.78;4.07;;;19.40;99.90;;;;;;5090697;28;20443;-56
2022/06/11 04:06:12;;;;;;;4.97;3.58;;;19.30;99.90;;;;;;5091215;28;20850;-58
2022/06/11 04:08:39;;;;;;;4.55;3.40;;;19.30;99.90;;;;;;5074320;28;20772;-59
2022/06/11 04:11:05;;;;;;;6.27;3.60;;;19.30;99.90;;;;;;5090815;28;20438;-58
2022/06/11 04:13:32;;;;;;;7.03;3.95;;;19.30;99.90;;;;;;5090772;28;20674;-57
2022/06/11 04:15:59;;;;;;;5.05;3.58;;;19.20;99.90;;;;;;5090987;28;20499;-59
2022/06/11 04:18:48;;;;;;;4.47;3.40;;;19.20;99.90;;;;;;5090540;28;20634;-57
2022/06/11 04:21:14;;;;;;;5.90;4.43;;;19.20;99.90;;;;;;5073168;28;20372;-59
2022/06/11 04:23:42;;;;;;;6.05;3.72;;;19.20;99.90;;;;;;5088939;28;20486;-59
2022/06/11 04:26:12;;;;;;;5.57;4.05;;;19.10;99.90;;;;;;5087628;28;20388;-58
2022/06/11 04:28:39;;;;;;;6.95;4.30;;;19.10;99.90;;;;;;5085568;28;20376;-58
2022/06/11 04:31:07;;;;;;;5.47;3.83;;;19.00;99.90;;;;;;5087012;28;20388;-59
2022/06/11 04:33:33;;;;;;;7.70;4.35;;;19.00;99.90;;;;;;5088126;28;20391;-59
2022/06/11 04:35:58;;;;;;;8.48;4.53;;;19.10;99.90;;;;;;5088086;28;20844;-59
2022/06/11 04:38:24;;;;;;;7.05;4.38;;;19.00;99.90;;;;;;5088567;28;20739;-59
2022/06/11 04:40:50;;;;;;;4.53;3.70;;;19.00;99.90;;;;;;5087478;28;21074;-59
2022/06/11 04:43:16;;;;;;;6.38;4.00;;;19.10;99.90;;;;;;5071540;28;20387;-58
2022/06/11 04:45:42;;;;;;;5.43;3.80;;;19.20;99.90;;;;;;5088528;28;20387;-58
2022/06/11 04:48:08;;;;;;;6.17;4.53;;;19.20;99.90;;;;;;5087481;28;20496;-58
2022/06/11 04:50:35;;;;;;;5.37;4.23;;;19.20;99.90;;;;;;5072049;28;20407;-58
2022/06/11 04:53:00;;;;;;;6.90;4.43;;;19.10;99.90;;;;;;5086182;28;20541;-57
2022/06/11 04:55:27;;;;;;;6.40;4.55;;;19.00;99.90;;;;;;5069298;28;20810;-58
2022/06/11 04:57:52;;;;;;;6.88;4.60;;;19.00;99.90;;;;;;5083720;28;20748;-57
2022/06/11 05:00:26;;;;;;;7.22;4.75;;;19.00;99.90;;;;;;5081979;28;20459;-58
2022/06/11 05:02:52;;;;;;;7.35;4.72;;;19.00;99.90;;;;;;5064415;28;20473;-57
2022/06/11 05:05:18;;;;;;;8.07;4.53;;;19.00;99.90;;;;;;5081841;28;20398;-57
2022/06/11 05:07:45;;;;;;;8.43;4.75;;;19.00;99.90;;;;;;5081174;28;20423;-57
2022/06/11 05:10:13;;;;;;;6.18;4.65;;;19.00;99.90;;;;;;5082433;28;20602;-58
2022/06/11 05:12:39;;;;;;;8.13;4.72;;;19.00;99.90;;;;;;5084239;28;20457;-58
2022/06/11 05:15:05;;;;;;;8.30;4.60;;;19.00;99.90;;;;;;5085435;28;20455;-57
2022/06/11 05:17:30;;;;;;;7.80;4.40;;;19.00;99.90;;;;;;5086855;28;20491;-57
2022/06/11 05:19:56;;;;;;;9.10;4.97;;;19.00;99.90;;;;;;5086717;28;20554;-59
2022/06/11 05:22:21;;;;;;;8.75;4.82;;;19.10;99.90;;;;;;5085658;28;20713;-59
2022/06/11 05:24:47;;;;;;;11.47;4.87;;;19.20;99.90;;;;;;5084957;28;20618;-58
2022/06/11 05:27:16;;;;;;;9.13;5.10;;;19.20;99.90;;;;;;5083189;28;20384;-56
2022/06/11 05:30:07;;;;;;;7.57;4.93;;;19.40;99.90;;;;;;5083725;28;20394;-58
2022/06/11 05:32:37;;;;;;;10.27;5.47;;;19.40;99.90;;;;;;5067655;28;20438;-58
2022/06/11 05:35:05;;;;;;;11.75;5.47;;;19.50;99.90;;;;;;5082838;28;20399;-58
2022/06/11 05:37:31;;;;;;;9.77;5.95;;;19.50;99.90;;;;;;5082681;28;20392;-56
2022/06/11 05:39:57;;;;;;;11.43;5.55;;;19.50;99.90;;;;;;5067241;28;20470;-57
2022/06/11 05:42:25;;;;;;;9.70;5.63;;;19.50;99.90;;;;;;5083309;28;20380;-58
2022/06/11 05:44:51;;;;;;;10.18;4.95;;;19.50;99.90;;;;;;5081145;28;20388;-58
2022/06/11 05:47:21;;;;;;;6.78;4.47;;;19.60;99.90;;;;;;5065589;28;20415;-58
2022/06/11 05:49:52;;;;;;;10.70;6.82;;;19.60;99.90;;;;;;5081912;28;20399;-57
2022/06/11 05:52:25;;;;;;;13.05;7.00;;;19.60;99.90;;;;;;5082472;28;20422;-57
2022/06/11 05:54:52;;;;;;;11.30;6.65;;;19.70;99.90;;;;;;5082068;28;20396;-58
2022/06/11 05:57:21;;;;;;;8.98;6.47;;;19.70;99.90;;;;;;5083021;28;20544;-58
2022/06/11 05:59:52;;;;;;;14.35;6.90;;;19.70;99.90;;;;;;5085863;28;20383;-55
2022/06/11 06:02:20;;;;;;;9.63;5.82;;;19.70;99.90;;;;;;5071503;28;20798;-57
2022/06/11 06:04:46;;;;;;;11.38;5.78;;;19.80;99.90;;;;;;5086363;28;20441;-55
2022/06/11 06:07:12;;;;;;;9.63;6.30;;;19.90;99.90;;;;;;5084851;28;20781;-56
2022/06/11 06:09:38;;;;;;;8.38;5.50;;;19.90;99.90;;;;;;5084253;28;20395;-58
2022/06/11 06:12:05;;;;;;;11.57;6.38;;;19.90;99.90;;;;;;5081010;28;20399;-57
2022/06/11 06:14:31;;;;;;;11.68;6.70;;;19.90;99.90;;;;;;5080305;28;20387;-57
2022/06/11 06:16:57;;;;;;;11.32;6.00;;;19.80;99.90;;;;;;5081962;28;20877;-58
2022/06/11 06:19:22;;;;;;;9.70;6.07;;;19.80;99.90;;;;;;5067574;28;20563;-57
2022/06/11 06:21:48;;;;;;;8.00;5.87;;;19.80;99.90;;;;;;5068010;28;20690;-56
2022/06/11 06:24:14;;;;;;;10.50;6.63;;;19.80;99.90;;;;;;5083659;28;20437;-58
2022/06/11 06:26:39;;;;;;;9.65;6.45;;;19.80;99.90;;;;;;5083578;28;20414;-57
2022/06/11 06:29:06;;;;;;;11.35;6.85;;;19.70;99.90;;;;;;5084377;28;20829;-58
2022/06/11 06:31:32;;;;;;;10.50;6.82;;;19.70;99.90;;;;;;5066754;28;20396;-57
2022/06/11 06:34:00;;;;;;;13.55;7.05;;;19.80;99.90;;;;;;5083894;28;20403;-58
2022/06/11 06:36:27;;;;;;;11.80;7.68;;;19.80;99.90;;;;;;5083655;28;20404;-58
2022/06/11 06:38:53;;;;;;;10.45;7.15;;;19.80;99.90;;;;;;5083444;28;20380;-58
2022/06/11 06:41:19;;;;;;;11.65;7.78;;;19.90;99.90;;;;;;5081587;28;20403;-58
2022/06/11 06:43:45;;;;;;;10.40;7.07;;;19.90;99.90;;;;;;5081500;28;20376;-61
2022/06/11 06:46:11;;;;;;;13.30;7.55;;;20.00;99.90;;;;;;5069563;28;20375;-56
2022/06/11 06:48:37;;;;;;;10.40;7.45;;;20.10;99.90;;;;;;5085714;28;20730;-58
2022/06/11 06:51:03;;;;;;;12.57;7.93;;;20.10;99.90;;;;;;5070084;28;20387;-56
2022/06/11 06:53:29;;;;;;;12.13;7.17;;;20.20;99.90;;;;;;5084389;28;20453;-57
2022/06/11 06:55:55;;;;;;;11.23;7.95;;;20.20;99.90;;;;;;5086813;28;21000;-56
2022/06/11 06:58:21;;;;;;;8.52;6.80;;;20.20;99.90;;;;;;5071308;28;20474;-57
2022/06/11 07:00:47;;;;;;;10.30;6.93;;;20.20;99.90;;;;;;5084692;28;20390;-57
2022/06/11 07:03:14;;;;;;;11.27;7.63;;;20.30;99.90;;;;;;5068313;28;20407;-58
2022/06/11 07:05:41;;;;;;;10.32;7.40;;;20.30;99.90;;;;;;5083512;28;20666;-58
2022/06/11 07:08:07;;;;;;;10.70;7.65;;;20.30;99.90;;;;;;5066959;28;20557;-57
2022/06/11 07:10:33;;;;;;;10.38;7.68;;;20.20;99.90;;;;;;5084347;28;20484;-56
2022/06/11 07:13:00;;;;;;;11.15;7.57;;;20.20;99.90;;;;;;5083215;28;20810;-58
2022/06/11 07:15:27;;;;;;;10.70;7.93;;;20.10;99.90;;;;;;5082454;28;20589;-56
2022/06/11 07:18:02;;;;;;;10.63;8.38;;;20.20;99.90;;;;;;5079766;28;20418;-57
2022/06/11 07:20:31;;;;;;;13.15;7.80;;;20.10;99.90;;;;;;5078339;28;20636;-58
2022/06/11 07:23:12;;;;;;;12.05;8.40;;;20.10;99.90;;;;;;5079818;28;20383;-58
2022/06/11 07:25:39;;;;;;;9.83;7.87;;;20.00;99.90;;;;;;5079237;28;20388;-57
2022/06/11 07:28:12;;;;;;;10.35;7.53;;;20.10;99.90;;;;;;5079929;28;20383;-58
2022/06/11 07:30:40;;;;;;;12.68;7.25;;;20.10;99.90;;;;;;5079716;28;20455;-58
2022/06/11 07:33:10;;;;;;;11.40;8.13;;;20.10;99.90;;;;;;5062151;28;20426;-58
2022/06/11 07:35:37;;;;;;;11.25;8.23;;;20.10;99.90;;;;;;5078710;28;20435;-58
2022/06/11 07:38:09;;;;;;;10.20;7.32;;;20.10;99.90;;;;;;5080764;28;20396;-58
2022/06/11 07:40:35;;;;;;;12.50;7.03;;;20.10;99.90;;;;;;5086125;28;20494;-58
2022/06/11 07:43:01;;;;;;;11.15;6.70;;;20.20;99.90;;;;;;5084952;28;20475;-58
2022/06/11 07:45:27;;;;;;;11.90;7.10;;;20.20;99.90;;;;;;5085073;28;20387;-58
2022/06/11 07:47:56;;;;;;;11.10;6.77;;;20.20;99.90;;;;;;5068927;28;20461;-57
2022/06/11 07:50:28;;;;;;;9.60;6.00;;;20.10;99.90;;;;;;5084514;28;20517;-58
2022/06/11 07:52:54;;;;;;;9.57;6.10;;;20.10;99.90;;;;;;5084500;28;20658;-58
2022/06/11 07:55:20;;;;;;;9.13;6.00;;;20.10;99.90;;;;;;5084520;28;20879;-55
2022/06/11 07:57:46;;;;;;;6.68;4.65;;;20.20;99.90;;;;;;5068576;28;20469;-57
2022/06/11 08:00:16;;;;;;;9.80;6.40;;;20.30;99.90;;;;;;5083745;28;20388;-56
2022/06/11 08:02:42;;;;;;;10.05;6.65;;;20.40;99.90;;;;;;5082641;28;20443;-57
2022/06/11 08:05:07;;;;;;;6.10;5.10;;;20.40;99.90;;;;;;5064445;28;20423;-59
2022/06/11 08:07:33;;;;;;;7.85;5.05;;;20.60;99.90;;;;;;5077659;28;20636;-58
2022/06/11 08:09:59;;;;;;;11.07;6.53;;;20.70;99.90;;;;;;5075788;28;20496;-57
2022/06/11 08:12:25;;;;;;;9.73;6.70;;;20.80;99.90;;;;;;5058032;28;20402;-59
2022/06/11 08:14:56;;;;;;;9.48;6.63;;;20.80;99.90;;;;;;5072412;28;20980;-59
2022/06/11 08:17:23;;;;;;;10.95;6.10;;;20.90;99.90;;;;;;5055940;28;20390;-58
2022/06/11 08:19:49;;;;;;;8.95;5.68;;;21.00;99.90;;;;;;5056565;28;20376;-59
2022/06/11 08:22:14;;;;;;;9.13;6.47;;;21.00;99.90;;;;;;5073097;28;20410;-58
2022/06/11 08:24:40;;;;;;;8.97;6.23;;;21.00;99.90;;;;;;5072506;28;20759;-59
2022/06/11 08:27:05;;;;;;;9.67;5.87;;;21.10;99.90;;;;;;5076257;28;20380;-57
2022/06/11 08:29:31;;;;;;;7.10;6.30;;;21.10;99.90;;;;;;5059729;28;20705;-60
2022/06/11 08:31:57;;;;;;;10.23;6.18;;;21.00;99.90;;;;;;5074526;28;20689;-58
2022/06/11 08:34:22;;;;;;;9.73;6.67;;;21.00;99.90;;;;;;5075149;28;20392;-59
2022/06/11 08:36:48;;;;;;;10.85;7.53;;;20.90;99.90;;;;;;5076174;28;20400;-59
2022/06/11 08:39:13;;;;;;;10.00;7.10;;;20.80;99.90;;;;;;5075301;28;20380;-59
2022/06/11 08:41:39;;;;;;;11.90;6.60;;;20.70;99.90;;;;;;5059260;28;20380;-59
2022/06/11 08:44:09;;;;;;;9.23;5.82;;;20.70;99.90;;;;;;5074210;28;20391;-59
2022/06/11 08:46:38;;;;;;;8.23;5.77;;;20.60;99.90;;;;;;5076058;28;20491;-57
2022/06/11 08:49:04;;;;;;;7.07;5.30;;;20.70;99.90;;;;;;5075662;28;20723;-58
2022/06/11 08:51:41;;;;;;;8.97;5.20;;;20.70;99.90;;;;;;5059811;28;20384;-57
2022/06/11 08:54:12;;;;;;;6.80;4.43;;;20.80;99.90;;;;;;5059288;28;20478;-58
2022/06/11 08:56:40;;;;;;;5.25;3.05;;;20.80;99.90;;;;;;5076913;28;20435;-58
2022/06/11 08:59:30;;;;;;;5.32;3.00;;;21.00;99.90;;;;;;5074873;28;20752;-56
2022/06/11 09:02:06;;;;;;;5.57;2.97;;;21.10;99.90;;;;;;5057634;28;20536;-56
2022/06/11 09:04:42;;;;;;;5.65;2.75;;;21.20;99.90;;;;;;5057673;28;20783;-55
2022/06/11 09:07:17;;;;;;;5.60;2.63;;;21.20;99.90;;;;;;5059464;28;20403;-58
2022/06/11 09:10:03;;;;;;;4.63;2.28;;;21.30;99.90;;;;;;5061286;28;20504;-58
2022/06/11 09:12:34;;;;;;;5.03;2.60;;;21.40;99.90;;;;;;5061037;28;20418;-57
2022/06/11 09:15:18;;;;;;;5.22;2.10;;;21.30;99.90;;;;;;5060426;28;20710;-59
2022/06/11 09:18:03;;;;;;;4.25;2.15;;;21.30;99.90;;;;;;5075689;28;20456;-58
2022/06/11 09:20:37;;;;;;;3.10;2.20;;;21.30;99.90;;;;;;5075607;28;20794;-58
2022/06/11 09:23:32;;;;;;;4.03;2.63;;;21.40;99.90;;;;;;5059086;28;20380;-56
2022/06/11 09:26:20;;;;;;;5.40;2.50;;;21.30;99.90;;;;;;5058323;28;20376;-59
2022/06/11 09:29:07;;;;;;;7.95;3.20;;;21.40;99.90;;;;;;5057255;28;20537;-58
2022/06/11 09:32:03;;;;;;;5.80;2.67;;;21.50;99.90;;;;;;5058771;28;20485;-56
2022/06/11 09:34:36;;;;;;;6.68;2.75;;;21.60;99.90;;;;;;5060006;28;20378;-56
2022/06/11 09:37:07;;;;;;;5.00;2.90;;;21.60;99.90;;;;;;5058722;28;20399;-58
2022/06/11 09:39:39;;;;;;;5.13;3.10;;;21.50;99.90;;;;;;5061967;28;20671;-58
2022/06/11 09:42:05;;;;;;;4.60;2.47;;;21.40;99.90;;;;;;5059615;28;20395;-60
2022/06/11 09:44:56;;;;;;;5.30;2.93;;;21.40;99.90;;;;;;5061555;28;20380;-56
2022/06/11 09:47:36;;;;;;;6.00;3.00;;;21.50;99.90;;;;;;5044812;28;20585;-57
2022/06/11 09:50:34;;;;;;;5.70;2.60;;;21.50;99.90;;;;;;5077651;28;20580;-58
2022/06/11 09:53:14;;;;;;;3.73;2.30;;;21.50;99.90;;;;;;5077469;28;20383;-56
2022/06/11 09:55:51;;;;;;;5.70;2.60;;;21.40;99.90;;;;;;5060583;28;20814;-59
2022/06/11 09:58:50;;;;;;;4.05;2.25;;;21.40;99.90;;;;;;5059378;28;20403;-58
2022/06/11 10:01:21;;;;;;;5.47;2.60;;;21.40;99.90;;;;;;5060715;28;20407;-58
2022/06/11 10:03:56;;;;;;;5.22;2.20;;;21.40;99.90;;;;;;5076153;28;20677;-58
2022/06/11 10:06:54;;;;;;;6.38;2.33;;;21.50;99.90;;;;;;5060087;28;20460;-58
2022/06/11 10:09:26;;;;;;;5.15;2.30;;;21.50;99.90;;;;;;5051623;28;20514;-57
2022/06/11 10:11:58;;;;;;;4.68;2.03;;;21.60;99.90;;;;;;5075225;28;20444;-57
2022/06/11 10:14:38;;;;;;;4.53;2.15;;;21.60;99.90;;;;;;5075245;28;20979;-57
2022/06/11 10:17:10;;;;;;;3.25;1.98;;;21.60;99.90;;;;;;5062299;28;20403;-57
2022/06/11 10:19:42;;;;;;;3.88;1.90;;;21.60;99.90;;;;;;5062435;28;20662;-58
2022/06/11 10:22:19;;;;;;;5.05;2.20;;;21.60;99.90;;;;;;5066602;28;20387;-58
2022/06/11 10:25:17;;;;;;;4.40;2.00;;;21.70;99.90;;;;;;5082782;28;20856;-58
2022/06/11 10:27:48;;;;;;;4.45;1.92;;;21.80;99.90;;;;;;5064310;28;20375;-58
2022/06/11 10:30:49;;;;;;;4.40;1.98;;;21.80;99.90;;;;;;5065300;28;20767;-58
2022/06/11 10:33:49;;;;;;;3.10;1.70;;;21.80;99.90;;;;;;5082666;28;20825;-58
2022/06/11 10:36:30;;;;;;;6.00;2.22;;;21.90;99.90;;;;;;5063063;28;20849;-59
2022/06/11 10:39:02;;;;;;;4.23;2.13;;;21.90;99.90;;;;;;5078900;28;20383;-58
2022/06/11 10:41:35;;;;;;;5.57;2.00;;;21.90;99.90;;;;;;5061433;28;20419;-59
2022/06/11 10:44:14;;;;;;;5.80;1.90;;;21.90;99.90;;;;;;5060703;28;20383;-57
2022/06/11 10:46:40;;;;;;;5.07;2.03;;;22.00;99.90;;;;;;5061127;28;20399;-58
2022/06/11 10:49:14;;;;;;;5.07;2.17;;;22.10;99.90;;;;;;5077943;28;20694;-57
2022/06/11 10:51:42;;;;;;;6.05;2.35;;;22.10;99.90;;;;;;5075411;28;20380;-58
2022/06/11 10:54:19;;;;;;;8.27;2.35;;;22.10;99.90;;;;;;5075470;28;20603;-56
2022/06/11 10:56:57;;;;;;;7.18;2.25;;;22.00;99.90;;;;;;5076080;28;20399;-58
2022/06/11 10:59:27;;;;;;;7.75;2.65;;;22.20;99.90;;;;;;5076493;28;20694;-57
2022/06/11 11:02:13;;;;;;;8.88;2.78;;;22.20;99.90;;;;;;5073128;28;20407;-58
2022/06/11 11:04:53;;;;;;;5.93;2.58;;;22.10;99.90;;;;;;5074110;28;20700;-59
2022/06/11 11:07:20;;;;;;;7.00;2.78;;;22.00;99.90;;;;;;5079226;28;20390;-57
2022/06/11 11:09:46;;;;;;;8.20;2.63;;;22.10;99.90;;;;;;5082387;28;20427;-58
2022/06/11 11:12:29;;;;;;;8.73;3.58;;;22.20;99.90;;;;;;5066444;28;20390;-58
2022/06/11 11:15:10;;;;;;;6.90;2.83;;;22.30;99.90;;;;;;5080094;28;20398;-57
2022/06/11 11:17:48;;;;;;;7.30;2.38;;;22.30;99.90;;;;;;5063842;28;20811;-57
2022/06/11 11:20:55;;;;;;;9.20;3.13;;;22.20;99.90;;;;;;5078945;28;20392;-57
2022/06/11 11:23:28;;;;;;;8.20;3.03;;;22.20;99.90;;;;;;5018551;28;20702;-58
2022/06/11 11:26:13;;;;;;;8.35;2.85;;;22.30;99.90;;;;;;5018433;28;20485;-57
2022/06/11 11:28:57;;;;;;;7.72;2.83;;;22.40;99.90;;;;;;5049073;28;20395;-58
2022/06/11 11:31:30;;;;;;;9.40;3.05;;;22.30;99.90;;;;;;5067180;28;20391;-58
2022/06/11 11:34:00;;;;;;;8.18;3.05;;;22.30;99.90;;;;;;5068133;28;20430;-58
2022/06/11 11:36:29;;;;;;;7.72;3.05;;;22.20;99.90;;;;;;5085860;28;20453;-58
2022/06/11 11:39:13;;;;;;;6.82;2.80;;;22.20;99.90;;;;;;5069220;28;20368;-56
2022/06/11 11:42:02;;;;;;;8.27;2.83;;;22.40;99.90;;;;;;5071868;28;20380;-58
2022/06/11 11:44:35;;;;;;;8.30;2.80;;;22.60;99.90;;;;;;5083211;28;20703;-58
2022/06/11 11:47:05;;;;;;;7.13;2.53;;;22.80;99.90;;;;;;5080849;28;20391;-58
2022/06/11 11:49:33;;;;;;;9.70;3.37;;;22.80;99.90;;;;;;5066796;28;20392;-56
2022/06/11 11:52:15;;;;;;;10.55;2.97;;;22.70;99.90;;;;;;5083963;28;20437;-57
2022/06/11 11:55:11;;;;;;;6.63;2.80;;;22.70;99.90;;;;;;5076720;28;20383;-55
2022/06/11 11:57:37;;;;;;;9.00;3.20;;;22.70;99.90;;;;;;5075018;28;20524;-58
2022/06/11 12:00:22;;;;;;;9.20;3.05;;;22.90;99.90;;;;;;5061894;28;20580;-58
2022/06/11 12:02:52;;;;;;;8.35;2.70;;;23.20;99.90;;;;;;5079456;28;20630;-55
2022/06/11 12:05:47;;;;;;;5.40;2.42;;;23.50;99.90;;;;;;5077877;28;20457;-58
2022/06/11 12:08:21;;;;;;;6.90;2.80;;;23.50;99.90;;;;;;5059557;28;20572;-57
2022/06/11 12:10:50;;;;;;;8.52;2.58;;;23.50;99.90;;;;;;5074034;28;20387;-57
2022/06/11 12:13:28;;;;;;;8.75;3.17;;;23.60;99.90;;;;;;5074188;28;20475;-58
2022/06/11 12:16:04;;;;;;;11.07;3.40;;;23.80;99.90;;;;;;5072111;28;20410;-58
2022/06/11 12:18:43;;;;;;;8.25;3.03;;;23.90;99.90;;;;;;5056969;28;20519;-57
2022/06/11 12:21:17;;;;;;;9.40;3.20;;;24.10;99.90;;;;;;5072116;28;20376;-58
2022/06/11 12:23:48;;;;;;;7.23;2.90;;;24.40;99.90;;;;;;5058029;28;20798;-57
2022/06/11 12:26:27;;;;;;;8.82;2.80;;;24.20;99.90;;;;;;5063390;28;20429;-58
2022/06/11 12:29:23;;;;;;;9.17;3.10;;;24.30;99.90;;;;;;5079151;28;20472;-58
2022/06/11 12:32:00;;;;;;;6.75;2.70;;;24.30;99.90;;;;;;5081284;28;21041;-58
2022/06/11 12:34:30;;;;;;;9.45;2.60;;;24.50;99.90;;;;;;5079110;28;20395;-59
2022/06/11 12:37:07;;;;;;;7.00;2.53;;;24.40;99.90;;;;;;5065582;28;20848;-58
2022/06/11 12:39:47;;;;;;;7.82;2.70;;;24.60;99.90;;;;;;5088517;28;20394;-59
2022/06/11 12:42:40;;;;;;;10.75;3.38;;;24.80;99.90;;;;;;5065986;28;20376;-56
2022/06/11 12:45:39;;;;;;;10.40;3.20;;;24.60;99.90;;;;;;5066930;28;20380;-57
2022/06/11 12:48:13;;;;;;;10.93;3.30;;;24.40;99.90;;;;;;5058215;28;20671;-56
2022/06/11 12:50:41;;;;;;;10.15;3.20;;;24.50;99.90;;;;;;5058422;28;20667;-59
2022/06/11 12:53:22;;;;;;;9.07;3.13;;;24.30;99.90;;;;;;5057091;28;20384;-59
2022/06/11 12:56:04;;;;;;;9.13;3.25;;;24.20;99.90;;;;;;5057652;28;20814;-59
2022/06/11 12:58:41;;;;;;;8.43;3.43;;;24.20;99.90;;;;;;5056616;28;20749;-59
2022/06/11 13:01:22;;;;;;;10.48;3.45;;;24.10;99.90;;;;;;5056241;28;20449;-58
2022/06/11 13:04:07;;;;;;;12.60;3.83;;;24.20;99.90;;;;;;5056214;28;20412;-59
2022/06/11 13:06:52;;;;;;;8.25;3.38;;;24.20;99.90;;;;;;5057612;28;20632;-58
2022/06/11 13:09:48;;;;;;;11.20;3.97;;;23.90;99.90;;;;;;5054816;28;20651;-58
2022/06/11 13:12:34;;;;;;;7.22;3.10;;;23.80;99.90;;;;;;5056735;28;20395;-59
2022/06/11 13:15:09;;;;;;;12.00;3.97;;;23.80;99.90;;;;;;5062179;28;20402;-59